Terminal Aerodrome Forecast
Issued by NWS Chicago, IL

Home | Current Version | Previous Version | Text Only | Print | Product List | Glossary Off
Versions: 1 2 3 4 5 6 7 8 9 10 11 12 13 14 15 16 17 18 19 20 21 22 23 24 25 26 27 28

424
FTUS43 KLOT 181130
TAFRFD
TAF
KRFD 181130Z 1812/1912 17005KT 1/4SM FG VV002
     FM181500 17012KT 5SM BR SCT010 SCT250
     FM181800 17017G26KT P6SM FEW130 SCT250 WS020/20050KT
     FM190000 17014G22KT P6SM BKN250 WS020/22055KT
     FM190500 18012KT 5SM -SHRA OVC035
     FM190800 17007KT 3SM -SHRA BR SCT008 OVC012=

USA.gov is the U.S. government's official web portal to all federal, state and local government web resources and services.